sensor_id;sensor_type;location;lat;lon;timestamp;pressure;altitude;pressure_sealevel;temperature;humidity
30636;BME280;17400;52.392;9.750;2024-03-23T00:53:11;100205.13;;;10.06;100.00
30636;BME280;17400;52.392;9.750;2024-03-23T00:55:38;100197.41;;;10.03;100.00
30636;BME280;17400;52.392;9.750;2024-03-23T00:58:04;100200.13;;;10.03;100.00
30636;BME280;17400;52.392;9.750;2024-03-23T01:00:31;100204.06;;;10.00;100.00
30636;BME280;17400;52.392;9.750;2024-03-23T01:02:57;100194.94;;;10.01;100.00
30636;BME280;17400;52.392;9.750;2024-03-23T01:05:24;100195.13;;;9.93;100.00
30636;BME280;17400;52.392;9.750;2024-03-23T01:07:50;100194.72;;;9.96;100.00
30636;BME280;17400;52.392;9.750;2024-03-23T01:10:19;100186.38;;;9.97;100.00
30636;BME280;17400;52.392;9.750;2024-03-23T01:12:44;100186.38;;;9.97;100.00
30636;BME280;17400;52.392;9.750;2024-03-23T01:15:11;100181.41;;;10.01;100.00
30636;BME280;17400;52.392;9.750;2024-03-23T01:17:37;100184.31;;;9.99;100.00
30636;BME280;17400;52.392;9.750;2024-03-23T01:20:05;100177.22;;;9.92;100.00
30636;BME280;17400;52.392;9.750;2024-03-23T01:22:32;100169.13;;;9.92;100.00
30636;BME280;17400;52.392;9.750;2024-03-23T01:24:59;100162.25;;;9.89;100.00
30636;BME280;17400;52.392;9.750;2024-03-23T01:27:26;100167.28;;;9.92;100.00
30636;BME280;17400;52.392;9.750;2024-03-23T01:29:53;100162.47;;;9.88;100.00
30636;BME280;17400;52.392;9.750;2024-03-23T01:32:19;100153.53;;;9.87;100.00
30636;BME280;17400;52.392;9.750;2024-03-23T01:34:46;100162.47;;;9.88;100.00
30636;BME280;17400;52.392;9.750;2024-03-23T01:37:12;100160.41;;;9.83;100.00
30636;BME280;17400;52.392;9.750;2024-03-23T01:39:39;100152.06;;;9.84;100.00
30636;BME280;17400;52.392;9.750;2024-03-23T01:42:05;100144.78;;;9.85;100.00
30636;BME280;17400;52.392;9.750;2024-03-23T01:44:33;100149.16;;;9.86;100.00
30636;BME280;17400;52.392;9.750;2024-03-23T01:46:59;100148.94;;;9.88;100.00
30636;BME280;17400;52.392;9.750;2024-03-23T01:49:26;100146.25;;;9.88;100.00
30636;BME280;17400;52.392;9.750;2024-03-23T01:51:52;100146.03;;;9.89;100.00
30636;BME280;17400;52.392;9.750;2024-03-23T01:54:20;100145.81;;;9.91;100.00
30636;BME280;17400;52.392;9.750;2024-03-23T01:56:47;100135.22;;;9.89;100.00
30636;BME280;17400;52.392;9.750;2024-03-23T01:59:13;100133.53;;;9.88;100.00
30636;BME280;17400;52.392;9.750;2024-03-23T02:01:41;100129.59;;;9.84;100.00
30636;BME280;17400;52.392;9.750;2024-03-23T02:04:07;100131.47;;;9.83;100.00
30636;BME280;17400;52.392;9.750;2024-03-23T02:06:35;100129.00;;;9.82;100.00
30636;BME280;17400;52.392;9.750;2024-03-23T02:09:01;100120.88;;;9.82;100.00
30636;BME280;17400;52.392;9.750;2024-03-23T02:11:29;100132.28;;;9.77;100.00
30636;BME280;17400;52.392;9.750;2024-03-23T02:13:55;100117.75;;;9.78;100.00
30636;BME280;17400;52.392;9.750;2024-03-23T02:16:22;100117.97;;;9.77;100.00
30636;BME280;17400;52.392;9.750;2024-03-23T02:18:49;100120.66;;;9.77;100.00
30636;BME280;17400;52.392;9.750;2024-03-23T02:21:16;100112.53;;;9.63;100.00
30636;BME280;17400;52.392;9.750;2024-03-23T02:23:43;100111.91;;;9.68;100.00
30636;BME280;17400;52.392;9.750;2024-03-23T02:26:10;100101.53;;;9.65;100.00
30636;BME280;17400;52.392;9.750;2024-03-23T02:28:36;100099.03;;;9.63;100.00
30636;BME280;17400;52.392;9.750;2024-03-23T02:31:03;100089.25;;;9.62;100.00
30636;BME280;17400;52.392;9.750;2024-03-23T02:33:30;100102.34;;;9.65;100.00
30636;BME280;17400;52.392;9.750;2024-03-23T02:35:57;100090.06;;;9.70;100.00
30636;BME280;17400;52.392;9.750;2024-03-23T02:38:23;100088.63;;;9.67;100.00
30636;BME280;17400;52.392;9.750;2024-03-23T02:40:52;100086.56;;;9.69;100.00
30636;BME280;17400;52.392;9.750;2024-03-23T02:43:18;100084.88;;;9.68;100.00
30636;BME280;17400;52.392;9.750;2024-03-23T02:45:45;100086.13;;;9.72;100.00
30636;BME280;17400;52.392;9.750;2024-03-23T02:48:11;100073.03;;;9.69;100.00
30636;BME280;17400;52.392;9.750;2024-03-23T02:50:38;100069.31;;;9.70;100.00
30636;BME280;17400;52.392;9.750;2024-03-23T02:53:05;100060.97;;;9.72;100.00
30636;BME280;17400;52.392;9.750;2024-03-23T02:55:32;100054.53;;;9.66;100.00
30636;BME280;17400;52.392;9.750;2024-03-23T02:57:59;100063.69;;;9.52;100.00
30636;BME280;17400;52.392;9.750;2024-03-23T03:00:27;100061.59;;;9.54;100.00
30636;BME280;17400;52.392;9.750;2024-03-23T03:02:54;100064.09;;;9.55;100.00
30636;BME280;17400;52.392;9.750;2024-03-23T03:05:21;100067.00;;;9.54;100.00
30636;BME280;17400;52.392;9.750;2024-03-23T03:07:47;100065.75;;;9.56;100.00
30636;BME280;17400;52.392;9.750;2024-03-23T03:10:14;100070.13;;;9.57;100.00
30636;BME280;17400;52.392;9.750;2024-03-23T03:12:40;100052.44;;;9.55;100.00
30636;BME280;17400;52.392;9.750;2024-03-23T03:15:10;100049.31;;;9.58;100.00
30636;BME280;17400;52.392;9.750;2024-03-23T03:17:36;100054.53;;;9.59;100.00
30636;BME280;17400;52.392;9.750;2024-03-23T03:20:04;100054.13;;;9.56;100.00
30636;BME280;17400;52.392;9.750;2024-03-23T03:22:30;100052.00;;;9.44;100.00
30636;BME280;17400;52.392;9.750;2024-03-23T03:24:57;100050.38;;;9.43;100.00
30636;BME280;17400;52.392;9.750;2024-03-23T03:27:23;100052.88;;;9.45;100.00
30636;BME280;17400;52.392;9.750;2024-03-23T03:29:50;100049.31;;;9.44;100.00
30636;BME280;17400;52.392;9.750;2024-03-23T03:32:17;100047.47;;;9.45;100.00
30636;BME280;17400;52.392;9.750;2024-03-23T03:34:44;100040.19;;;9.45;100.00
30636;BME280;17400;52.392;9.750;2024-03-23T03:37:10;100045.16;;;9.42;100.00
30636;BME280;17400;52.392;9.750;2024-03-23T03:39:37;100046.22;;;9.41;100.00
30636;BME280;17400;52.392;9.750;2024-03-23T03:42:03;100051.78;;;9.39;100.00
30636;BME280;17400;52.392;9.750;2024-03-23T03:44:32;100038.50;;;9.38;100.00
30636;BME280;17400;52.392;9.750;2024-03-23T03:46:58;100035.78;;;9.31;100.00
30636;BME280;17400;52.392;9.750;2024-03-23T03:49:27;100043.50;;;9.34;100.00
30636;BME280;17400;52.392;9.750;2024-03-23T03:51:53;100039.13;;;9.33;100.00
30636;BME280;17400;52.392;9.750;2024-03-23T03:54:20;100043.69;;;9.32;100.00
30636;BME280;17400;52.392;9.750;2024-03-23T03:56:47;100036.44;;;9.33;100.00
30636;BME280;17400;52.392;9.750;2024-03-23T03:59:14;100034.75;;;9.25;100.00
30636;BME280;17400;52.392;9.750;2024-03-23T04:01:40;100034.75;;;9.25;100.00
30636;BME280;17400;52.392;9.750;2024-03-23T04:04:07;100039.94;;;9.27;100.00
30636;BME280;17400;52.392;9.750;2024-03-23T04:06:35;100044.72;;;9.25;100.00
30636;BME280;17400;52.392;9.750;2024-03-23T04:09:02;100045.75;;;9.24;100.00
30636;BME280;17400;52.392;9.750;2024-03-23T04:11:28;100037.25;;;9.27;100.00
30636;BME280;17400;52.392;9.750;2024-03-23T04:13:55;100024.38;;;9.29;100.00
30636;BME280;17400;52.392;9.750;2024-03-23T04:16:26;100027.47;;;9.26;100.00
30636;BME280;17400;52.392;9.750;2024-03-23T04:18:53;100030.59;;;9.23;100.00
30636;BME280;17400;52.392;9.750;2024-03-23T04:21:19;100022.28;;;9.17;100.00
30636;BME280;17400;52.392;9.750;2024-03-23T04:23:48;100026.44;;;9.20;100.00
30636;BME280;17400;52.392;9.750;2024-03-23T04:26:15;100023.53;;;9.22;100.00
30636;BME280;17400;52.392;9.750;2024-03-23T04:28:42;100024.13;;;9.04;100.00
30636;BME280;17400;52.392;9.750;2024-03-23T04:31:08;100022.00;;;8.92;100.00
30636;BME280;17400;52.392;9.750;2024-03-23T04:33:36;100009.75;;;8.90;100.00
30636;BME280;17400;52.392;9.750;2024-03-23T04:36:02;100002.06;;;8.93;100.00
30636;BME280;17400;52.392;9.750;2024-03-23T04:38:29;100004.78;;;9.00;100.00
30636;BME280;17400;52.392;9.750;2024-03-23T04:40:59;100008.31;;;9.07;100.00
30636;BME280;17400;52.392;9.750;2024-03-23T04:43:26;100000.88;;;9.09;100.00
30636;BME280;17400;52.392;9.750;2024-03-23T04:45:54;100004.59;;;9.15;100.00
30636;BME280;17400;52.392;9.750;2024-03-23T04:48:21;100005.63;;;9.14;100.00
30636;BME280;17400;52.392;9.750;2024-03-23T04:50:48;100005.47;;;9.15;100.00
30636;BME280;17400;52.392;9.750;2024-03-23T04:53:16;100002.75;;;9.15;100.00
30636;BME280;17400;52.392;9.750;2024-03-23T04:55:43;100010.22;;;9.13;100.00
30636;BME280;17400;52.392;9.750;2024-03-23T04:58:11;100005.22;;;9.04;100.00
30636;BME280;17400;52.392;9.750;2024-03-23T05:00:37;100008.53;;;8.99;100.00
30636;BME280;17400;52.392;9.750;2024-03-23T05:03:05;100005.00;;;8.92;100.00
30636;BME280;17400;52.392;9.750;2024-03-23T05:05:31;100000.63;;;8.91;100.00
30636;BME280;17400;52.392;9.750;2024-03-23T05:07:58;99988.56;;;8.87;100.00
30636;BME280;17400;52.392;9.750;2024-03-23T05:10:25;99992.28;;;8.86;100.00
30636;BME280;17400;52.392;9.750;2024-03-23T05:12:52;99983.16;;;8.80;100.00
30636;BME280;17400;52.392;9.750;2024-03-23T05:15:19;99981.28;;;8.80;100.00
30636;BME280;17400;52.392;9.750;2024-03-23T05:17:46;99986.91;;;8.86;100.00
30636;BME280;17400;52.392;9.750;2024-03-23T05:20:12;99980.84;;;8.77;100.00
30636;BME280;17400;52.392;9.750;2024-03-23T05:22:39;99978.34;;;8.75;100.00
30636;BME280;17400;52.392;9.750;2024-03-23T05:25:06;99980.81;;;8.63;100.00
30636;BME280;17400;52.392;9.750;2024-03-23T05:27:33;99983.72;;;8.69;100.00
30636;BME280;17400;52.392;9.750;2024-03-23T05:29:59;99983.72;;;8.69;100.00
30636;BME280;17400;52.392;9.750;2024-03-23T05:32:27;99984.56;;;8.69;100.00
30636;BME280;17400;52.392;9.750;2024-03-23T05:34:53;99976.47;;;8.69;100.00
30636;BME280;17400;52.392;9.750;2024-03-23T05:37:22;99971.47;;;8.66;100.00
30636;BME280;17400;52.392;9.750;2024-03-23T05:39:48;99965.00;;;8.54;100.00
30636;BME280;17400;52.392;9.750;2024-03-23T05:42:16;99970.44;;;8.60;100.00
30636;BME280;17400;52.392;9.750;2024-03-23T05:44:43;99979.16;;;8.69;100.00
30636;BME280;17400;52.392;9.750;2024-03-23T05:47:11;99976.28;;;8.77;100.00
30636;BME280;17400;52.392;9.750;2024-03-23T05:49:40;99976.28;;;8.77;100.00
30636;BME280;17400;52.392;9.750;2024-03-23T05:52:08;99972.16;;;8.81;100.00
30636;BME280;17400;52.392;9.750;2024-03-23T05:54:34;99958.03;;;8.86;100.00
30636;BME280;17400;52.392;9.750;2024-03-23T05:57:03;99954.94;;;8.89;100.00
30636;BME280;17400;52.392;9.750;2024-03-23T05:59:31;99963.84;;;8.90;100.00
30636;BME280;17400;52.392;9.750;2024-03-23T06:01:59;99958.03;;;8.86;100.00
30636;BME280;17400;52.392;9.750;2024-03-23T06:04:26;99958.25;;;8.91;100.00
30636;BME280;17400;52.392;9.750;2024-03-23T06:06:54;99958.47;;;8.96;100.00
30636;BME280;17400;52.392;9.750;2024-03-23T06:09:20;99964.69;;;8.97;100.00
30636;BME280;17400;52.392;9.750;2024-03-23T06:11:48;99965.53;;;8.97;100.00
30636;BME280;17400;52.392;9.750;2024-03-23T06:14:14;99969.25;;;8.96;100.00
30636;BME280;17400;52.392;9.750;2024-03-23T06:16:41;99966.34;;;8.98;100.00
30636;BME280;17400;52.392;9.750;2024-03-23T06:19:07;99958.25;;;8.98;100.00
30636;BME280;17400;52.392;9.750;2024-03-23T06:21:34;99954.53;;;8.99;100.00
30636;BME280;17400;52.392;9.750;2024-03-23T06:24:01;99958.91;;;9.00;100.00
30636;BME280;17400;52.392;9.750;2024-03-23T06:26:28;99950.59;;;9.02;100.00
30636;BME280;17400;52.392;9.750;2024-03-23T06:28:54;99948.72;;;9.02;100.00
30636;BME280;17400;52.392;9.750;2024-03-23T06:31:22;99954.31;;;9.00;100.00
30636;BME280;17400;52.392;9.750;2024-03-23T06:33:48;99951.22;;;9.04;100.00
30636;BME280;17400;52.392;9.750;2024-03-23T06:36:15;99957.22;;;8.99;100.00
30636;BME280;17400;52.392;9.750;2024-03-23T06:38:41;99962.63;;;8.99;100.00
30636;BME280;17400;52.392;9.750;2024-03-23T06:41:09;99957.44;;;9.04;100.00
30636;BME280;17400;52.392;9.750;2024-03-23T06:43:35;99963.47;;;9.06;100.00
30636;BME280;17400;52.392;9.750;2024-03-23T06:46:03;99975.09;;;9.07;100.00
30636;BME280;17400;52.392;9.750;2024-03-23T06:48:30;99971.59;;;9.06;100.00
30636;BME280;17400;52.392;9.750;2024-03-23T06:50:57;99968.03;;;9.06;100.00
30636;BME280;17400;52.392;9.750;2024-03-23T06:53:24;99968.88;;;9.06;100.00
30636;BME280;17400;52.392;9.750;2024-03-23T06:55:51;99960.34;;;9.03;100.00
30636;BME280;17400;52.392;9.750;2024-03-23T06:58:20;99958.91;;;9.00;100.00
30636;BME280;17400;52.392;9.750;2024-03-23T07:00:47;99955.56;;;8.98;100.00
30636;BME280;17400;52.392;9.750;2024-03-23T07:03:13;99962.19;;;8.95;100.00
30636;BME280;17400;52.392;9.750;2024-03-23T07:05:40;99968.03;;;8.99;100.00
30636;BME280;17400;52.392;9.750;2024-03-23T07:08:07;99958.47;;;8.96;100.00
30636;BME280;17400;52.392;9.750;2024-03-23T07:10:34;99953.72;;;8.98;100.00
30636;BME280;17400;52.392;9.750;2024-03-23T07:13:01;99964.09;;;9.02;100.00
30636;BME280;17400;52.392;9.750;2024-03-23T07:15:29;99960.97;;;9.05;100.00
30636;BME280;17400;52.392;9.750;2024-03-23T07:17:56;99956.41;;;9.05;100.00
30636;BME280;17400;52.392;9.750;2024-03-23T07:20:24;99968.88;;;9.06;100.00
30636;BME280;17400;52.392;9.750;2024-03-23T07:22:50;99962.63;;;9.06;100.00
30636;BME280;17400;52.392;9.750;2024-03-23T07:25:17;99962.03;;;9.10;100.00
30636;BME280;17400;52.392;9.750;2024-03-23T07:27:43;99970.13;;;9.17;100.00
30636;BME280;17400;52.392;9.750;2024-03-23T07:30:10;99967.00;;;9.13;100.00
30636;BME280;17400;52.392;9.750;2024-03-23T07:32:37;99973.44;;;9.12;100.00
30636;BME280;17400;52.392;9.750;2024-03-23T07:35:05;99974.28;;;9.20;100.00
30636;BME280;17400;52.392;9.750;2024-03-23T07:37:31;99982.41;;;9.26;100.00
30636;BME280;17400;52.392;9.750;2024-03-23T07:39:58;99975.13;;;9.27;100.00
30636;BME280;17400;52.392;9.750;2024-03-23T07:42:25;99973.88;;;9.23;100.00
30636;BME280;17400;52.392;9.750;2024-03-23T07:44:52;99976.78;;;9.14;100.00
30636;BME280;17400;52.392;9.750;2024-03-23T07:47:20;99964.72;;;9.10;100.00
30636;BME280;17400;52.392;9.750;2024-03-23T07:49:49;99968.88;;;9.13;100.00
30636;BME280;17400;52.392;9.750;2024-03-23T07:52:15;99964.72;;;9.10;100.00
30636;BME280;17400;52.392;9.750;2024-03-23T07:54:41;99970.94;;;9.04;100.00
30636;BME280;17400;52.392;9.750;2024-03-23T07:57:07;99974.66;;;8.96;100.00
30636;BME280;17400;52.392;9.750;2024-03-23T07:59:34;99966.16;;;8.99;100.00
30636;BME280;17400;52.392;9.750;2024-03-23T08:02:00;99964.53;;;9.05;100.00
30636;BME280;17400;52.392;9.750;2024-03-23T08:04:27;99969.28;;;9.10;100.00
30636;BME280;17400;52.392;9.750;2024-03-23T08:06:55;99971.16;;;8.96;100.00
30636;BME280;17400;52.392;9.750;2024-03-23T08:09:22;99969.28;;;9.03;100.00
30636;BME280;17400;52.392;9.750;2024-03-23T08:11:48;99970.94;;;8.97;100.00
30636;BME280;17400;52.392;9.750;2024-03-23T08:14:15;99969.69;;;9.00;100.00
30636;BME280;17400;52.392;9.750;2024-03-23T08:16:41;99964.06;;;8.95;100.00
30636;BME280;17400;52.392;9.750;2024-03-23T08:19:14;99961.97;;;8.97;100.00
30636;BME280;17400;52.392;9.750;2024-03-23T08:21:40;99965.56;;;9.17;100.00
30636;BME280;17400;52.392;9.750;2024-03-23T08:24:09;99956.22;;;9.27;100.00
30636;BME280;17400;52.392;9.750;2024-03-23T08:26:36;99958.69;;;9.28;100.00
30636;BME280;17400;52.392;9.750;2024-03-23T08:29:04;99963.50;;;9.46;100.00
30636;BME280;17400;52.392;9.750;2024-03-23T08:31:30;99968.69;;;9.61;100.00
30636;BME280;17400;52.392;9.750;2024-03-23T08:33:57;99965.56;;;9.64;100.00
30636;BME280;17400;52.392;9.750;2024-03-23T08:36:23;99969.31;;;9.63;100.00
30636;BME280;17400;52.392;9.750;2024-03-23T08:38:50;99967.22;;;9.45;100.00
30636;BME280;17400;52.392;9.750;2024-03-23T08:41:20;99967.63;;;9.69;100.00
30636;BME280;17400;52.392;9.750;2024-03-23T08:43:48;99969.06;;;9.78;100.00
30636;BME280;17400;52.392;9.750;2024-03-23T08:46:14;99974.25;;;9.87;100.00
30636;BME280;17400;52.392;9.750;2024-03-23T08:48:43;99968.28;;;9.71;100.00
30636;BME280;17400;52.392;9.750;2024-03-23T08:51:13;99960.97;;;9.85;100.00
30636;BME280;17400;52.392;9.750;2024-03-23T08:53:41;99968.25;;;9.84;100.00
30636;BME280;17400;52.392;9.750;2024-03-23T08:56:08;99959.69;;;9.88;100.00
30636;BME280;17400;52.392;9.750;2024-03-23T08:58:37;99956.22;;;9.74;100.00
30636;BME280;17400;52.392;9.750;2024-03-23T09:01:06;99972.03;;;9.57;100.00
30636;BME280;17400;52.392;9.750;2024-03-23T09:03:33;99967.63;;;9.62;100.00
30636;BME280;17400;52.392;9.750;2024-03-23T09:05:59;99973.44;;;9.86;100.00
30636;BME280;17400;52.392;9.750;2024-03-23T09:08:27;99966.56;;;9.83;100.00
30636;BME280;17400;52.392;9.750;2024-03-23T09:10:53;99970.69;;;9.99;100.00
30636;BME280;17400;52.392;9.750;2024-03-23T09:13:20;99965.94;;;9.95;100.00
30636;BME280;17400;52.392;9.750;2024-03-23T09:15:48;99973.66;;;9.84;100.00
30636;BME280;17400;52.392;9.750;2024-03-23T09:18:16;99973.44;;;9.79;100.00
30636;BME280;17400;52.392;9.750;2024-03-23T09:20:42;99976.50;;;10.10;100.00
30636;BME280;17400;52.392;9.750;2024-03-23T09:23:09;99973.72;;;10.43;100.00
30636;BME280;17400;52.392;9.750;2024-03-23T09:25:36;99973.09;;;10.87;100.00
30636;BME280;17400;52.392;9.750;2024-03-23T09:28:04;99967.97;;;11.36;100.00
30636;BME280;17400;52.392;9.750;2024-03-23T09:30:32;99974.72;;;11.52;99.22
30636;BME280;17400;52.392;9.750;2024-03-23T09:33:00;99956.63;;;11.20;100.00
30636;BME280;17400;52.392;9.750;2024-03-23T09:35:26;99958.34;;;10.82;100.00
30636;BME280;17400;52.392;9.750;2024-03-23T09:37:53;99953.75;;;10.44;100.00
30636;BME280;17400;52.392;9.750;2024-03-23T09:40:20;99958.75;;;10.27;100.00
30636;BME280;17400;52.392;9.750;2024-03-23T09:42:51;99966.72;;;10.15;100.00
30636;BME280;17400;52.392;9.750;2024-03-23T09:45:21;99960.72;;;10.00;100.00
30636;BME280;17400;52.392;9.750;2024-03-23T09:47:48;99967.34;;;10.17;100.00
30636;BME280;17400;52.392;9.750;2024-03-23T09:50:18;99952.25;;;10.48;96.78
30636;BME280;17400;52.392;9.750;2024-03-23T09:52:45;99954.53;;;10.52;93.24
30636;BME280;17400;52.392;9.750;2024-03-23T09:55:11;99958.25;;;10.96;86.81
30636;BME280;17400;52.392;9.750;2024-03-23T09:57:39;99957.41;;;11.27;83.28
30636;BME280;17400;52.392;9.750;2024-03-23T10:00:06;99952.00;;;11.53;78.96
30636;BME280;17400;52.392;9.750;2024-03-23T10:02:34;99960.31;;;11.26;79.41
30636;BME280;17400;52.392;9.750;2024-03-23T10:05:01;99957.94;;;11.11;78.56
30636;BME280;17400;52.392;9.750;2024-03-23T10:07:29;99949.84;;;11.04;79.26
30636;BME280;17400;52.392;9.750;2024-03-23T10:09:56;99959.59;;;10.80;76.93
30636;BME280;17400;52.392;9.750;2024-03-23T10:12:23;99951.22;;;10.49;74.38
30636;BME280;17400;52.392;9.750;2024-03-23T10:14:50;99947.03;;;10.54;78.02
30636;BME280;17400;52.392;9.750;2024-03-23T10:17:18;99946.00;;;10.55;80.38
30636;BME280;17400;52.392;9.750;2024-03-23T10:19:45;99945.66;;;10.76;76.22
30636;BME280;17400;52.392;9.750;2024-03-23T10:22:14;99940.13;;;10.96;75.83
30636;BME280;17400;52.392;9.750;2024-03-23T10:24:42;99948.00;;;11.05;71.32
30636;BME280;17400;52.392;9.750;2024-03-23T10:27:09;99950.44;;;11.13;70.97
30636;BME280;17400;52.392;9.750;2024-03-23T10:29:35;99930.56;;;11.19;67.39
30636;BME280;17400;52.392;9.750;2024-03-23T10:32:09;99933.22;;;11.26;67.62
30636;BME280;17400;52.392;9.750;2024-03-23T10:34:36;99940.00;;;11.42;63.95
30636;BME280;17400;52.392;9.750;2024-03-23T10:37:03;99940.34;;;11.71;66.42
30636;BME280;17400;52.392;9.750;2024-03-23T10:39:32;99935.28;;;11.56;64.29
30636;BME280;17400;52.392;9.750;2024-03-23T10:42:02;99945.09;;;11.75;64.80
30636;BME280;17400;52.392;9.750;2024-03-23T10:44:29;99934.53;;;11.48;62.00
30636;BME280;17400;52.392;9.750;2024-03-23T10:46:57;99965.31;;;11.29;63.13
30636;BME280;17400;52.392;9.750;2024-03-23T10:49:27;99986.09;;;10.71;68.53
30636;BME280;17400;52.392;9.750;2024-03-23T10:51:57;99989.16;;;10.16;75.29
30636;BME280;17400;52.392;9.750;2024-03-23T10:54:24;100000.03;;;9.96;81.23
30636;BME280;17400;52.392;9.750;2024-03-23T10:56:55;99996.94;;;9.86;87.18
30636;BME280;17400;52.392;9.750;2024-03-23T10:59:24;99999.03;;;9.70;92.13
30636;BME280;17400;52.392;9.750;2024-03-23T11:01:55;100008.19;;;9.56;95.94
30636;BME280;17400;52.392;9.750;2024-03-23T11:04:34;100004.63;;;9.35;97.52
30636;BME280;17400;52.392;9.750;2024-03-23T11:07:01;99983.22;;;9.13;87.49
30636;BME280;17400;52.392;9.750;2024-03-23T11:09:38;99986.75;;;9.21;85.19
30636;BME280;17400;52.392;9.750;2024-03-23T11:12:23;99989.69;;;9.46;91.39
30636;BME280;17400;52.392;9.750;2024-03-23T11:14:52;99991.72;;;9.77;94.33
30636;BME280;17400;52.392;9.750;2024-03-23T11:17:21;99994.25;;;9.65;96.77
30636;BME280;17400;52.392;9.750;2024-03-23T11:19:53;100005.47;;;9.42;99.16
30636;BME280;17400;52.392;9.750;2024-03-23T11:22:39;99992.34;;;9.19;100.00
30636;BME280;17400;52.392;9.750;2024-03-23T11:25:15;99996.28;;;9.03;100.00
30636;BME280;17400;52.392;9.750;2024-03-23T11:27:43;99984.47;;;9.17;100.00
30636;BME280;17400;52.392;9.750;2024-03-23T11:30:16;99981.78;;;9.31;100.00
30636;BME280;17400;52.392;9.750;2024-03-23T11:32:45;99974.72;;;9.43;100.00
30636;BME280;17400;52.392;9.750;2024-03-23T11:35:25;99975.13;;;9.54;100.00
30636;BME280;17400;52.392;9.750;2024-03-23T11:38:03;99973.03;;;9.69;100.00
30636;BME280;17400;52.392;9.750;2024-03-23T11:40:29;99981.31;;;10.01;100.00
30636;BME280;17400;52.392;9.750;2024-03-23T11:43:00;99970.47;;;10.08;100.00
30636;BME280;17400;52.392;9.750;2024-03-23T11:45:33;99975.06;;;10.00;100.00
30636;BME280;17400;52.392;9.750;2024-03-23T11:48:02;99997.56;;;9.74;100.00
30636;BME280;17400;52.392;9.750;2024-03-23T11:50:30;100002.78;;;9.42;100.00
30636;BME280;17400;52.392;9.750;2024-03-23T11:53:15;100002.06;;;8.87;100.00
30636;BME280;17400;52.392;9.750;2024-03-23T11:55:47;100012.19;;;8.71;100.00
30636;BME280;17400;52.392;9.750;2024-03-23T11:58:15;100005.59;;;8.94;100.00
30636;BME280;17400;52.392;9.750;2024-03-23T12:00:49;99994.44;;;9.10;100.00
30636;BME280;17400;52.392;9.750;2024-03-23T12:03:17;99985.91;;;9.13;100.00
30636;BME280;17400;52.392;9.750;2024-03-23T12:05:48;99974.28;;;9.20;100.00
30636;BME280;17400;52.392;9.750;2024-03-23T12:08:20;99978.84;;;9.26;100.00
30636;BME280;17400;52.392;9.750;2024-03-23T12:10:48;99973.88;;;9.16;100.00
30636;BME280;17400;52.392;9.750;2024-03-23T12:13:17;99974.50;;;9.25;100.00
30636;BME280;17400;52.392;9.750;2024-03-23T12:15:45;99970.97;;;9.24;100.00
30636;BME280;17400;52.392;9.750;2024-03-23T12:18:13;99954.16;;;9.15;100.00
30636;BME280;17400;52.392;9.750;2024-03-23T12:20:39;99962.25;;;9.15;100.00
30636;BME280;17400;52.392;9.750;2024-03-23T12:23:10;99964.31;;;9.13;100.00
30636;BME280;17400;52.392;9.750;2024-03-23T12:25:39;99956.00;;;9.42;100.00
30636;BME280;17400;52.392;9.750;2024-03-23T12:28:07;99962.25;;;9.56;100.00
30636;BME280;17400;52.392;9.750;2024-03-23T12:30:34;99954.75;;;9.64;100.00
30636;BME280;17400;52.392;9.750;2024-03-23T12:33:03;99964.72;;;9.57;100.00
30636;BME280;17400;52.392;9.750;2024-03-23T12:35:29;99963.69;;;9.58;100.00
30636;BME280;17400;52.392;9.750;2024-03-23T12:37:57;99958.06;;;9.66;100.00
30636;BME280;17400;52.392;9.750;2024-03-23T12:40:23;99960.16;;;9.71;100.00
30636;BME280;17400;52.392;9.750;2024-03-23T12:42:50;99960.56;;;9.68;100.00
30636;BME280;17400;52.392;9.750;2024-03-23T12:45:16;99973.88;;;9.63;100.00
30636;BME280;17400;52.392;9.750;2024-03-23T12:47:43;99980.31;;;9.48;100.00
30636;BME280;17400;52.392;9.750;2024-03-23T12:50:13;99973.28;;;9.41;100.00
30636;BME280;17400;52.392;9.750;2024-03-23T12:52:40;99968.91;;;9.53;100.00
30636;BME280;17400;52.392;9.750;2024-03-23T12:55:06;99967.84;;;9.61;95.44
30636;BME280;17400;52.392;9.750;2024-03-23T12:57:34;99965.78;;;9.43;89.11
30636;BME280;17400;52.392;9.750;2024-03-23T13:00:00;99960.38;;;9.43;89.47
30636;BME280;17400;52.392;9.750;2024-03-23T13:02:27;99963.06;;;9.49;87.51
30636;BME280;17400;52.392;9.750;2024-03-23T13:04:53;99953.09;;;9.63;85.24
30636;BME280;17400;52.392;9.750;2024-03-23T13:07:23;99961.41;;;9.69;83.93
30636;BME280;17400;52.392;9.750;2024-03-23T13:09:50;99942.88;;;9.86;83.36
30636;BME280;17400;52.392;9.750;2024-03-23T13:12:17;99951.81;;;9.79;81.73
30636;BME280;17400;52.392;9.750;2024-03-23T13:14:44;99951.59;;;9.81;83.87
30636;BME280;17400;52.392;9.750;2024-03-23T13:17:11;99943.44;;;10.08;83.86
30636;BME280;17400;52.392;9.750;2024-03-23T13:19:37;99936.91;;;10.29;81.45
30636;BME280;17400;52.392;9.750;2024-03-23T13:22:05;99938.91;;;10.54;81.29
30636;BME280;17400;52.392;9.750;2024-03-23T13:24:32;99936.06;;;10.80;81.29
30636;BME280;17400;52.392;9.750;2024-03-23T13:26:59;99947.50;;;10.82;78.28
30636;BME280;17400;52.392;9.750;2024-03-23T13:29:25;99934.38;;;10.79;75.85
30636;BME280;17400;52.392;9.750;2024-03-23T13:31:52;99935.16;;;10.93;75.69
30636;BME280;17400;52.392;9.750;2024-03-23T13:34:19;99938.75;;;11.12;74.76
30636;BME280;17400;52.392;9.750;2024-03-23T13:36:47;99929.53;;;11.20;75.90
30636;BME280;17400;52.392;9.750;2024-03-23T13:39:13;99922.00;;;11.47;76.82
30636;BME280;17400;52.392;9.750;2024-03-23T13:41:44;99935.56;;;11.47;73.36
30636;BME280;17400;52.392;9.750;2024-03-23T13:44:11;99928.34;;;11.60;71.42
30636;BME280;17400;52.392;9.750;2024-03-23T13:46:39;99932.72;;;11.61;71.84
30636;BME280;17400;52.392;9.750;2024-03-23T13:49:05;99917.81;;;11.70;71.52
30636;BME280;17400;52.392;9.750;2024-03-23T13:51:32;99913.41;;;11.94;68.61